createdAt,value
2022-09-28T00:03:36.670Z,85.42
2022-09-28T00:08:39.259Z,85.45
2022-09-28T00:13:42.833Z,85.73
2022-09-28T00:18:45.842Z,86.42
2022-09-28T00:23:53.927Z,86.97
2022-09-28T00:28:59.065Z,86.89
2022-09-28T00:34:04.771Z,86.79
2022-09-28T00:39:11.633Z,87.23
2022-09-28T00:44:17.098Z,87.96
2022-09-28T00:49:22.988Z,87.94
2022-09-28T00:54:26.039Z,87.87
2022-09-28T00:59:29.193Z,87.86
2022-09-28T01:04:33.202Z,87.40
2022-09-28T01:09:38.188Z,88.03
2022-09-28T01:14:41.154Z,88.27
2022-09-28T01:19:46.506Z,87.99
2022-09-28T01:24:56.103Z,87.58
2022-09-28T01:30:01.569Z,86.72
2022-09-28T01:35:06.938Z,86.47
2022-09-28T01:40:09.994Z,86.61
2022-09-28T01:45:18.191Z,86.99
2022-09-28T01:50:22.694Z,87.19
2022-09-28T01:55:31.554Z,87.09
2022-09-28T02:00:36.025Z,87.92
2022-09-28T02:05:40.941Z,88.44
2022-09-28T02:10:46.293Z,88.51
2022-09-28T02:15:51.691Z,88.97
2022-09-28T02:20:57.463Z,89.64
2022-09-28T02:26:02.071Z,90.66
2022-09-28T02:31:04.617Z,91.18
2022-09-28T02:36:07.225Z,91.29
2022-09-28T02:41:12.585Z,91.55
2022-09-28T02:46:15.502Z,92.18
2022-09-28T02:51:17.923Z,92.72
2022-09-28T02:56:22.873Z,93.19
2022-09-28T03:01:33.291Z,93.32
2022-09-28T03:06:38.612Z,93.95
2022-09-28T03:11:45.775Z,94.21
2022-09-28T03:16:48.406Z,94.29
2022-09-28T03:21:50.884Z,94.65
2022-09-28T03:26:53.317Z,94.70
2022-09-28T03:31:55.782Z,95.32
2022-09-28T03:36:58.409Z,95.53
2022-09-28T03:42:01.300Z,96.15
2022-09-28T03:47:03.745Z,96.11
2022-09-28T03:52:06.181Z,96.22
2022-09-28T03:57:09.139Z,96.26
2022-09-28T04:02:11.614Z,96.47
2022-09-28T04:07:14.125Z,96.86
2022-09-28T04:12:16.625Z,96.83
2022-09-28T04:17:19.195Z,96.63
2022-09-28T04:22:21.635Z,96.91
2022-09-28T04:27:26.986Z,96.84
2022-09-28T04:32:29.413Z,97.22
2022-09-28T04:37:32.138Z,97.08
2022-09-28T04:42:34.538Z,97.54
2022-09-28T04:47:36.943Z,98.14
2022-09-28T04:52:39.350Z,98.09
2022-09-28T04:57:41.825Z,98.19
2022-09-28T05:02:44.713Z,98.21
2022-09-28T05:07:47.343Z,98.40
2022-09-28T05:12:49.730Z,98.50
2022-09-28T05:17:52.573Z,98.88
2022-09-28T05:22:55.101Z,99.49
2022-09-28T05:27:57.978Z,99.87
2022-09-28T05:33:00.375Z,100.00
2022-09-28T05:38:03.967Z,99.95
2022-09-28T05:43:06.420Z,99.72
2022-09-28T05:48:09.169Z,99.20
2022-09-28T05:53:11.643Z,99.94
2022-09-28T05:58:14.300Z,100.00
2022-09-28T06:03:16.797Z,99.37
2022-09-28T06:14:59.963Z,99.96
2022-09-28T06:20:04.238Z,100.00
2022-09-28T06:25:08.468Z,100.00
2022-09-28T06:30:11.319Z,100.00
2022-09-28T06:35:15.827Z,99.99
2022-09-28T06:40:18.769Z,99.95
2022-09-28T06:45:24.427Z,99.20
2022-09-28T06:50:37.375Z,99.97
2022-09-28T06:55:40.719Z,98.49
2022-09-28T07:00:43.578Z,98.95
2022-09-28T07:11:39.542Z,100.00
2022-09-28T07:17:10.065Z,100.00
2022-09-28T07:22:05.648Z,98.12
2022-09-28T07:27:08.771Z,96.19
2022-09-28T07:32:11.182Z,98.53
2022-09-28T07:37:13.795Z,99.25
2022-09-28T07:42:16.705Z,99.90
2022-09-28T07:47:30.777Z,99.92
2022-09-28T07:52:36.136Z,98.20
2022-09-28T07:57:40.122Z,97.80
2022-09-28T08:02:42.782Z,96.96
2022-09-28T08:07:45.556Z,95.87
2022-09-28T08:12:48.163Z,95.77
2022-09-28T08:17:51.485Z,96.05
2022-09-28T08:22:54.227Z,96.15
2022-09-28T08:27:56.903Z,94.75
2022-09-28T08:32:59.455Z,94.33
2022-09-28T08:38:03.353Z,95.27
2022-09-28T08:43:14.503Z,93.62
2022-09-28T08:48:24.638Z,92.91
2022-09-28T08:53:27.020Z,92.49
2022-09-28T08:58:32.906Z,93.18
2022-09-28T09:03:37.646Z,93.59
2022-09-28T09:08:40.999Z,93.08
2022-09-28T09:13:45.673Z,87.16
2022-09-28T09:18:54.374Z,87.02
2022-09-28T09:24:03.509Z,87.03
2022-09-28T09:29:09.872Z,83.80
2022-09-28T09:34:15.443Z,82.41
2022-09-28T09:39:27.616Z,82.73
2022-09-28T09:44:39.800Z,81.01
2022-09-28T09:56:36.132Z,81.35
2022-09-28T10:01:40.684Z,74.64
2022-09-28T10:06:43.576Z,71.96
2022-09-28T10:11:50.091Z,67.83
2022-09-28T10:16:53.771Z,69.57
2022-09-28T10:21:58.435Z,69.48
2022-09-28T10:27:04.360Z,71.04
2022-09-28T10:32:17.566Z,70.44
2022-09-28T10:37:20.011Z,72.71
2022-09-28T10:42:25.944Z,75.02
2022-09-28T10:47:31.235Z,72.65
2022-09-28T10:52:33.630Z,73.41
2022-09-28T10:57:36.717Z,74.01
2022-09-28T11:02:40.202Z,74.36
2022-09-28T11:07:46.895Z,71.75
2022-09-28T11:12:49.644Z,71.28
2022-09-28T11:17:52.385Z,69.88
2022-09-28T11:22:55.750Z,70.75
2022-09-28T11:27:59.918Z,71.55
2022-09-28T11:33:05.266Z,72.60
2022-09-28T11:38:10.669Z,72.24
2022-09-28T11:43:16.871Z,73.44
2022-09-28T11:48:23.775Z,74.09
2022-09-28T11:53:31.395Z,73.77
2022-09-28T11:58:36.771Z,71.03
2022-09-28T12:03:41.115Z,67.72
2022-09-28T12:08:49.195Z,65.28
2022-09-28T12:13:54.078Z,60.56
2022-09-28T12:19:03.849Z,61.78
2022-09-28T12:24:09.248Z,60.30
2022-09-28T12:29:14.535Z,60.50
2022-09-28T12:34:17.138Z,58.68
2022-09-28T12:39:46.691Z,59.54
2022-09-28T12:44:59.456Z,60.13
2022-09-28T12:50:37.692Z,59.68
2022-09-28T12:55:30.418Z,57.23
2022-09-28T13:00:35.952Z,55.86
2022-09-28T13:05:41.260Z,55.74
2022-09-28T13:10:55.190Z,56.03
2022-09-28T13:15:58.740Z,57.88
2022-09-28T13:21:04.702Z,58.95
2022-09-28T13:26:13.957Z,59.13
2022-09-28T13:31:20.247Z,59.43
2022-09-28T13:36:27.845Z,58.31
2022-09-28T13:41:33.991Z,59.20
2022-09-28T13:46:39.347Z,59.84
2022-09-28T13:51:49.785Z,58.31
2022-09-28T13:56:54.870Z,59.13
2022-09-28T14:02:06.631Z,58.50
2022-09-28T14:07:15.198Z,56.92
2022-09-28T14:12:20.653Z,55.94
2022-09-28T14:17:25.488Z,55.24
2022-09-28T14:22:34.569Z,54.25
2022-09-28T14:27:40.108Z,56.25
2022-09-28T14:32:48.496Z,56.59
2022-09-28T14:37:56.597Z,58.68
2022-09-28T14:43:01.939Z,59.12
2022-09-28T14:48:11.452Z,55.04
2022-09-28T14:53:19.482Z,55.44
2022-09-28T14:58:24.892Z,54.93
2022-09-28T15:03:28.864Z,53.99
2022-09-28T15:08:35.264Z,54.83
2022-09-28T15:13:40.781Z,56.32
2022-09-28T15:18:46.105Z,55.65
2022-09-28T15:23:49.723Z,55.25
2022-09-28T15:28:52.161Z,55.75
2022-09-28T15:33:57.651Z,57.09
2022-09-28T15:39:01.371Z,58.41
2022-09-28T15:44:07.177Z,59.28
2022-09-28T15:49:12.647Z,58.97
2022-09-28T15:54:19.340Z,59.79
2022-09-28T15:59:26.204Z,61.24
2022-09-28T16:04:31.574Z,63.06
2022-09-28T16:09:38.924Z,64.42
2022-09-28T16:14:47.595Z,65.73
2022-09-28T16:19:50.088Z,66.95
2022-09-28T16:24:54.951Z,68.35
2022-09-28T16:30:05.066Z,69.37
2022-09-28T16:35:10.747Z,70.42
2022-09-28T16:40:13.724Z,71.57
2022-09-28T16:45:17.997Z,72.32
2022-09-28T16:50:21.179Z,73.19
2022-09-28T16:55:39.612Z,73.31
2022-09-28T17:00:43.404Z,73.85
2022-09-28T17:05:47.872Z,74.26
2022-09-28T17:11:13.799Z,75.33
2022-09-28T17:16:18.313Z,75.32
2022-09-28T17:21:20.802Z,75.44
2022-09-28T17:26:27.787Z,75.59
2022-09-28T17:31:30.422Z,75.56
2022-09-28T17:36:32.852Z,75.79
2022-09-28T17:41:37.208Z,76.66
2022-09-28T17:46:45.753Z,76.53
2022-09-28T17:51:50.037Z,76.45
2022-09-28T17:56:52.442Z,76.77
2022-09-28T18:01:54.897Z,76.71
2022-09-28T18:06:57.566Z,77.14
2022-09-28T18:12:01.008Z,77.68
2022-09-28T18:17:03.639Z,78.25
2022-09-28T18:22:06.080Z,79.03
2022-09-28T18:27:08.552Z,79.31
2022-09-28T18:32:11.137Z,79.52
2022-09-28T18:37:13.634Z,79.35
2022-09-28T18:42:16.314Z,79.60
2022-09-28T18:47:19.119Z,79.65
2022-09-28T18:52:21.569Z,79.96
2022-09-28T18:57:24.221Z,79.92
2022-09-28T19:02:27.306Z,80.18
2022-09-28T19:07:31.218Z,80.42
2022-09-28T19:12:33.730Z,80.41
2022-09-28T19:17:36.234Z,80.45
2022-09-28T19:22:38.725Z,80.93
2022-09-28T19:27:41.316Z,81.04
2022-09-28T19:32:44.115Z,81.19
2022-09-28T19:37:46.708Z,81.10
2022-09-28T19:42:49.260Z,81.03
2022-09-28T19:47:55.095Z,81.33
2022-09-28T19:53:01.669Z,81.67
2022-09-28T19:58:04.187Z,82.16
2022-09-28T20:03:06.755Z,82.41
2022-09-28T20:08:09.717Z,82.56
2022-09-28T20:13:12.219Z,82.54
2022-09-28T20:18:15.222Z,82.98
2022-09-28T20:23:17.898Z,83.18
2022-09-28T20:28:20.356Z,83.57
2022-09-28T20:33:28.840Z,84.21
2022-09-28T20:38:31.572Z,84.53
2022-09-28T20:43:34.866Z,84.68
2022-09-28T20:48:37.309Z,84.64
2022-09-28T20:53:40.401Z,84.97
2022-09-28T20:58:42.870Z,84.89
2022-09-28T21:03:48.639Z,85.27
2022-09-28T21:08:51.617Z,85.57
2022-09-28T21:13:55.089Z,85.37
2022-09-28T21:18:58.098Z,85.38
2022-09-28T21:24:00.730Z,86.17
2022-09-28T21:29:05.743Z,86.31
2022-09-28T21:34:13.348Z,86.52
2022-09-28T21:39:15.974Z,86.45
2022-09-28T21:44:18.653Z,86.38
2022-09-28T21:49:21.293Z,86.81
2022-09-28T21:54:23.794Z,86.90
2022-09-28T21:59:26.283Z,86.80
2022-09-28T22:04:28.751Z,86.70
2022-09-28T22:09:31.404Z,87.03
2022-09-28T22:14:33.882Z,87.61
2022-09-28T22:19:36.375Z,87.84
2022-09-28T22:24:38.903Z,88.06
2022-09-28T22:29:42.051Z,88.03
2022-09-28T22:34:44.540Z,88.28
2022-09-28T22:39:47.354Z,88.10
2022-09-28T22:44:49.910Z,88.41
2022-09-28T22:49:52.352Z,87.80
2022-09-28T22:54:54.783Z,87.65
2022-09-28T22:59:57.329Z,88.10
2022-09-28T23:04:59.770Z,88.98
2022-09-28T23:10:02.211Z,89.36
2022-09-28T23:15:05.667Z,89.04
2022-09-28T23:20:08.449Z,89.16
2022-09-28T23:25:10.884Z,88.94
2022-09-28T23:30:13.852Z,88.60
2022-09-28T23:35:16.335Z,89.25
2022-09-28T23:40:20.007Z,89.43
2022-09-28T23:45:22.579Z,89.46
2022-09-28T23:50:25.109Z,89.32
2022-09-28T23:55:27.703Z,89.81
